Quinter, KS

7:54 AM CST on February 09, 2016 (GMT -0600)
APRSWXNET | | Change Station
CLOSE
Current Station
Personal Weather Station
Location: Gove, KS
Elevation: 2540 ft
Nearby Weather Stations

Elev 2540 ft 38.93 °N, 100.40 °W | Updated 31 minutes ago

Clear
Clear
24 °F
Feels Like 15 °F
N
8
Wind Variable Wind from NW
Gusts 11.0 mph

Today
High -- | Low -- °F
--% Chance of Precip.
Yesterday
High -- | Low -- °F
Precip. -- in
Pressure 30.31 in
Visibility 10.0 miles
Clouds Clear
Windchill 15 °F
Dew Point 21 °F
Humidity 88%
Rainfall in
Snow Depth Not available.
7:39 AM 6:11 PM
New Moon, 1% visible
METAR KHLC 091253Z AUTO 00000KT 10SM CLR M03/M07 A3024 RMK AO2 SLP263 T10281067
Pressure 30.31 in
Visibility 10.0 miles
Clouds Clear
Windchill 15 °F
Dew Point 21 °F
Humidity 88%
Rainfall in
Snow Depth Not available.
7:39 AM 6:11 PM
New Moon, 1% visible
METAR KHLC 091253Z AUTO 00000KT 10SM CLR M03/M07 A3024 RMK AO2 SLP263 T10281067

10-Day Weather Forecast

Almanac

Astronomy

Feb. 09, 2016 Rise Set
Actual Time
Civil Twilight
Nautical Twilight
Astronomical Twilight
Moon
Length of Visible Light
Length of Day
Tomorrow will be .
, % of the Moon is Illuminated

Today's Extremes

State Highs State Lows

Community

WunderPhotos

Upload Photos

1,891,591 photos uploaded!

WunderBlog® & News

Nearby

Air Quality

  Air Quality AQ Index Pollutant
Not available.

Snow Depth

Station Depth Elevation

Earthquake Activity

City Distance Mag. Time & Date
Minimum magnitude displayed is 2.5.

Coastal Water Temperatures

Place Temperature

Stations

Nearby Weather Stations

Station Location Temp. Windchill Dew Point Humidity Wind Precip. Elev Updated Type
                   

Watches & Warnings

There are currently no watches in effect.